Time;durP1;ratioP1;P1;durP2;ratioP2;P2;SDS_P1;SDS_P2;PMS_P1;PMS_P2;Temp;Humidity;BMP_temperature;BMP_pressure;BME280_temperature;BME280_humidity;BME280_pressure;Samples;Min_cycle;Max_cycle;Signal;HPM_P1;HPM_P2
2021/10/14 00:01:26;;;;;;;4.33;3.37;;;;;;;6.39;87.11;97718.25;5057290;28;20192;-70
2021/10/14 00:03:52;;;;;;;5.80;3.20;;;;;;;6.35;86.90;97726.59;5075129;28;20530;-69
2021/10/14 00:06:17;;;;;;;4.90;2.73;;;;;;;6.32;87.14;97717.34;5074330;28;20219;-68
2021/10/14 00:08:43;;;;;;;3.80;2.80;;;;;;;6.28;87.67;97716.09;5075960;28;20192;-69
2021/10/14 00:11:08;;;;;;;6.27;3.00;;;;;;;6.36;86.97;97715.19;5074666;28;20228;-69
2021/10/14 00:13:35;;;;;;;3.43;2.60;;;;;;;6.29;87.30;97712.50;5074267;28;20201;-69
2021/10/14 00:16:00;;;;;;;2.70;2.50;;;;;;;6.27;87.30;97709.25;5056575;28;20212;-69
2021/10/14 00:18:26;;;;;;;3.00;2.70;;;;;;;6.35;87.10;97706.59;5074773;28;20287;-69
2021/10/14 00:20:51;;;;;;;4.87;2.93;;;;;;;6.33;87.05;97718.97;5074832;28;20185;-69
2021/10/14 00:23:17;;;;;;;2.80;2.50;;;;;;;6.30;87.03;97713.31;5075324;28;20215;-68
2021/10/14 00:25:42;;;;;;;3.53;2.63;;;;;;;6.29;87.14;97709.09;5074466;28;20552;-68
2021/10/14 00:28:07;;;;;;;4.33;2.63;;;;;;;6.33;87.05;97712.94;5074890;28;20256;-68
2021/10/14 00:30:33;;;;;;;4.60;2.90;;;;;;;6.41;86.12;97716.28;5056887;28;20185;-69
2021/10/14 00:32:58;;;;;;;2.90;2.53;;;;;;;6.51;85.90;97716.03;5074790;28;20189;-69
2021/10/14 00:35:24;;;;;;;3.80;2.63;;;;;;;6.39;86.42;97725.25;5073950;28;20187;-69
2021/10/14 00:37:49;;;;;;;4.57;3.03;;;;;;;6.37;86.61;97727.22;5074563;28;20212;-68
2021/10/14 00:40:16;;;;;;;5.37;3.33;;;;;;;6.34;86.74;97724.97;5074878;28;20214;-68
2021/10/14 00:42:45;;;;;;;4.27;2.90;;;;;;;6.46;86.11;97723.56;5074751;28;20216;-68
2021/10/14 00:45:12;;;;;;;3.47;2.67;;;;;;;6.33;87.14;97715.53;5074407;28;20185;-69
2021/10/14 00:47:40;;;;;;;6.00;3.00;;;;;;;6.26;87.19;97716.25;5073999;28;20192;-69
2021/10/14 00:50:08;;;;;;;3.47;2.83;;;;;;;6.33;86.94;97715.53;5056607;28;20181;-68
2021/10/14 00:52:36;;;;;;;3.57;3.00;;;;;;;6.25;86.97;97714.63;5074068;28;20718;-68
2021/10/14 00:55:03;;;;;;;3.40;3.07;;;;;;;6.19;87.18;97717.94;5064998;28;20261;-68
2021/10/14 00:57:29;;;;;;;4.57;3.30;;;;;;;6.19;87.51;97709.31;5074063;28;20206;-69
2021/10/14 00:59:55;;;;;;;4.03;3.30;;;;;;;6.08;88.02;97700.13;5073745;28;20291;-69
2021/10/14 01:02:21;;;;;;;3.63;3.30;;;;;;;6.09;87.68;97701.75;5074282;28;20185;-68
2021/10/14 01:04:46;;;;;;;3.90;3.13;;;;;;;6.01;88.30;97703.63;5073999;28;20192;-69
2021/10/14 01:07:12;;;;;;;4.33;3.03;;;;;;;6.00;88.73;97708.03;5074076;28;20694;-68
2021/10/14 01:09:39;;;;;;;4.57;3.13;;;;;;;5.95;89.01;97704.31;5056109;28;20211;-68
2021/10/14 01:12:05;;;;;;;3.27;2.87;;;;;;;5.95;89.15;97704.31;5073781;28;20236;-68
2021/10/14 01:14:31;;;;;;;3.50;3.20;;;;;;;5.94;89.08;97707.91;5055386;28;20189;-69
2021/10/14 01:16:57;;;;;;;3.37;2.80;;;;;;;5.91;89.42;97705.66;5073462;28;20209;-68
2021/10/14 01:19:23;;;;;;;6.13;3.47;;;;;;;5.87;89.28;97713.00;5073800;28;20193;-68
2021/10/14 01:21:49;;;;;;;5.07;3.03;;;;;;;5.78;89.70;97716.63;5073810;28;20600;-69
2021/10/14 01:24:15;;;;;;;3.23;2.83;;;;;;;5.82;89.70;97717.88;5054682;28;20195;-69
2021/10/14 01:26:42;;;;;;;5.97;3.37;;;;;;;5.91;89.54;97716.84;5074328;28;20193;-68
2021/10/14 01:29:07;;;;;;;4.60;3.17;;;;;;;5.88;89.75;97713.81;5073719;28;20177;-69
2021/10/14 01:31:33;;;;;;;3.17;2.83;;;;;;;5.91;89.39;97710.88;5073786;28;20189;-68
2021/10/14 01:33:59;;;;;;;4.23;3.17;;;;;;;5.96;88.97;97709.38;5073428;28;20185;-68
2021/10/14 01:36:24;;;;;;;3.53;3.10;;;;;;;6.06;88.58;97706.50;5073450;28;20233;-69
2021/10/14 01:38:50;;;;;;;2.90;2.70;;;;;;;6.16;88.10;97702.69;5073075;28;20193;-69
2021/10/14 01:41:16;;;;;;;3.70;2.90;;;;;;;6.18;88.05;97692.91;5073715;28;20669;-69
2021/10/14 01:43:42;;;;;;;3.40;2.97;;;;;;;6.12;88.57;97685.00;5073090;28;20334;-69
2021/10/14 01:46:08;;;;;;;3.47;3.00;;;;;;;6.20;87.85;97690.91;5055197;28;20204;-69
2021/10/14 01:48:33;;;;;;;6.13;3.23;;;;;;;6.22;87.81;97688.97;5073219;28;20214;-68
2021/10/14 01:51:00;;;;;;;4.33;3.30;;;;;;;6.09;88.03;97691.34;5073263;28;20630;-68
2021/10/14 01:53:25;;;;;;;5.13;3.40;;;;;;;6.16;88.07;97694.06;5073064;28;20258;-68
2021/10/14 01:55:51;;;;;;;3.53;2.87;;;;;;;6.08;88.19;97683.72;5072968;28;20181;-68
2021/10/14 01:58:18;;;;;;;5.87;3.30;;;;;;;5.99;88.60;97693.38;5073094;28;20726;-68
2021/10/14 02:00:44;;;;;;;3.90;3.50;;;;;;;5.84;89.18;97695.13;5073053;28;20192;-68
2021/10/14 02:03:10;;;;;;;4.73;4.00;;;;;;;5.89;89.15;97687.63;5055398;28;20176;-68
2021/10/14 02:05:35;;;;;;;4.00;3.37;;;;;;;5.92;88.60;97684.66;5073213;28;20552;-68
2021/10/14 02:08:01;;;;;;;4.43;3.37;;;;;;;5.77;89.25;97687.19;5072589;28;20212;-68
2021/10/14 02:10:26;;;;;;;3.43;3.13;;;;;;;5.67;89.86;97691.81;5072663;28;20182;-68
2021/10/14 02:12:53;;;;;;;3.57;3.23;;;;;;;5.73;89.69;97696.31;5072606;28;20272;-70
2021/10/14 02:15:18;;;;;;;4.83;3.30;;;;;;;5.67;90.10;97683.19;5054758;28;20197;-68
2021/10/14 02:17:43;;;;;;;3.97;3.53;;;;;;;5.62;90.19;97680.31;5072684;28;20201;-69
2021/10/14 02:20:09;;;;;;;4.40;3.50;;;;;;;5.58;90.25;97679.03;5054780;28;20260;-68
2021/10/14 02:22:35;;;;;;;4.60;3.63;;;;;;;5.62;90.07;97682.91;5054908;28;20204;-68
2021/10/14 02:25:00;;;;;;;5.13;3.70;;;;;;;5.46;90.70;97683.84;5073092;28;20212;-68
2021/10/14 02:27:25;;;;;;;5.17;3.63;;;;;;;5.45;90.79;97679.63;5072756;28;20181;-68
2021/10/14 02:29:51;;;;;;;6.17;3.70;;;;;;;5.59;89.82;97685.84;5073121;28;20192;-69
2021/10/14 02:32:17;;;;;;;6.17;3.57;;;;;;;5.46;90.54;97683.03;5072318;28;20177;-69
2021/10/14 02:34:42;;;;;;;5.67;3.67;;;;;;;5.55;90.40;97680.19;5072673;28;20196;-68
2021/10/14 02:37:07;;;;;;;3.47;3.17;;;;;;;5.40;90.71;97682.72;5071866;28;20205;-68
2021/10/14 02:39:33;;;;;;;4.77;3.83;;;;;;;5.49;90.39;97687.88;5072925;28;20193;-68
2021/10/14 02:41:58;;;;;;;6.30;3.53;;;;;;;5.44;91.02;97686.59;5072740;28;20189;-68
2021/10/14 02:44:24;;;;;;;4.40;3.90;;;;;;;5.47;90.82;97682.84;5054607;28;20689;-68
2021/10/14 02:46:49;;;;;;;4.70;4.17;;;;;;;5.46;90.83;97681.25;5072030;28;20231;-69
2021/10/14 02:49:14;;;;;;;6.53;3.43;;;;;;;5.49;90.48;97682.66;5072749;28;20189;-68
2021/10/14 02:51:40;;;;;;;5.77;4.23;;;;;;;5.62;90.07;97681.13;5072211;28;20272;-69
2021/10/14 02:54:05;;;;;;;5.77;4.07;;;;;;;5.63;89.59;97684.53;5054444;28;20635;-68
2021/10/14 02:56:31;;;;;;;4.40;3.83;;;;;;;5.32;91.37;97679.34;5072129;28;20236;-68
2021/10/14 02:58:56;;;;;;;4.40;4.00;;;;;;;5.24;91.83;97684.63;5054167;28;20264;-69
2021/10/14 03:01:21;;;;;;;6.37;3.70;;;;;;;5.24;91.29;97679.41;5072411;28;20185;-68
2021/10/14 03:03:47;;;;;;;5.10;3.80;;;;;;;5.15;92.13;97691.63;5054083;28;20999;-69
2021/10/14 03:06:12;;;;;;;6.33;3.80;;;;;;;5.16;92.68;97693.25;5056616;28;20181;-68
2021/10/14 03:08:37;;;;;;;4.73;3.80;;;;;;;5.39;91.67;97688.91;5072673;28;20572;-68
2021/10/14 03:11:03;;;;;;;4.33;3.67;;;;;;;5.31;91.62;97695.94;5072273;28;20271;-68
2021/10/14 03:13:28;;;;;;;3.70;3.40;;;;;;;5.43;91.43;97697.16;5054254;28;20181;-69
2021/10/14 03:15:54;;;;;;;6.60;4.03;;;;;;;5.43;91.43;97697.97;5053785;28;20185;-69
2021/10/14 03:18:19;;;;;;;5.60;3.20;;;;;;;5.45;91.38;97695.22;5071873;28;20260;-69
2021/10/14 03:20:44;;;;;;;4.60;3.87;;;;;;;5.52;91.27;97692.75;5054284;28;20181;-68
2021/10/14 03:23:10;;;;;;;3.63;3.23;;;;;;;5.57;91.37;97685.22;5072295;28;20185;-68
2021/10/14 03:25:35;;;;;;;5.27;4.20;;;;;;;5.66;90.77;97684.19;5072347;28;20247;-68
2021/10/14 03:28:01;;;;;;;5.93;3.97;;;;;;;5.60;90.86;97685.69;5072071;28;20654;-68
2021/10/14 03:30:26;;;;;;;7.20;4.20;;;;;;;5.64;91.13;97686.13;5072352;28;20702;-69
2021/10/14 03:32:51;;;;;;;4.97;4.10;;;;;;;5.51;91.39;97684.13;5071728;28;20189;-68
2021/10/14 03:35:17;;;;;;;7.73;3.70;;;;;;;5.64;90.75;97679.13;5054366;28;20230;-68
2021/10/14 03:37:46;;;;;;;5.60;4.23;;;;;;;5.69;90.33;97681.22;5072243;28;20202;-68
2021/10/14 03:40:12;;;;;;;6.90;3.97;;;;;;;5.49;90.98;97678.28;5072348;28;20177;-68
2021/10/14 03:42:37;;;;;;;5.33;3.67;;;;;;;5.74;90.14;97676.34;5054351;28;20550;-68
2021/10/14 03:45:03;;;;;;;4.63;3.53;;;;;;;5.49;90.59;97678.28;5072095;28;20178;-70
2021/10/14 03:47:28;;;;;;;4.37;3.43;;;;;;;5.52;90.24;97680.53;5072464;28;20196;-69
2021/10/14 03:49:53;;;;;;;4.97;3.30;;;;;;;5.50;90.38;97681.69;5075531;28;20714;-68
2021/10/14 03:52:19;;;;;;;5.73;4.03;;;;;;;5.40;90.65;97693.13;5041230;28;20177;-68
2021/10/14 03:54:44;;;;;;;4.00;3.60;;;;;;;5.42;90.79;97690.34;5075681;28;20255;-69
2021/10/14 03:57:09;;;;;;;3.87;3.47;;;;;;;5.18;91.77;97688.72;5075286;28;20192;-68
2021/10/14 03:59:35;;;;;;;3.90;3.50;;;;;;;5.28;91.44;97701.47;5057445;28;20660;-68
2021/10/14 04:02:00;;;;;;;4.07;3.67;;;;;;;5.30;91.08;97696.91;5075186;28;20198;-69
2021/10/14 04:04:26;;;;;;;4.07;3.43;;;;;;;5.11;91.86;97698.16;5057458;28;20181;-68
2021/10/14 04:06:51;;;;;;;5.67;3.70;;;;;;;5.26;90.42;97698.22;5074867;28;20243;-69
2021/10/14 04:09:16;;;;;;;4.47;3.37;;;;;;;5.04;91.42;97699.78;5075270;28;20189;-68
2021/10/14 04:11:42;;;;;;;4.73;3.77;;;;;;;5.30;90.04;97704.69;5074593;28;20221;-70
2021/10/14 04:14:07;;;;;;;5.70;3.33;;;;;;;5.12;90.87;97704.97;5074787;28;20200;-69
2021/10/14 04:16:33;;;;;;;3.93;3.40;;;;;;;5.18;90.63;97711.28;5057023;28;20600;-70
2021/10/14 04:18:58;;;;;;;9.27;3.70;;;;;;;4.96;91.98;97708.41;5056661;28;20637;-68
2021/10/14 04:21:25;;;;;;;3.70;3.40;;;;;;;5.10;91.69;97711.31;5075001;28;20539;-68
2021/10/14 04:23:50;;;;;;;3.47;3.00;;;;;;;5.17;91.29;97715.66;5074992;28;20704;-69
2021/10/14 04:26:16;;;;;;;5.90;3.17;;;;;;;5.33;90.35;97714.78;5075068;28;20185;-68
2021/10/14 04:28:41;;;;;;;3.10;2.80;;;;;;;5.35;90.68;97718.03;5074957;28;20189;-69
2021/10/14 04:31:08;;;;;;;4.20;3.00;;;;;;;5.48;90.17;97713.06;5074422;28;20247;-69
2021/10/14 04:33:33;;;;;;;3.70;3.10;;;;;;;5.66;88.83;97712.78;5074587;28;20626;-69
2021/10/14 04:36:03;;;;;;;4.77;3.77;;;;;;;5.81;87.84;97716.25;5056700;28;20293;-69
2021/10/14 04:38:28;;;;;;;3.57;3.27;;;;;;;5.77;88.31;97717.59;5074782;28;20603;-68
2021/10/14 04:40:54;;;;;;;3.57;3.03;;;;;;;5.73;88.28;97716.31;5056248;28;20223;-69
2021/10/14 04:43:20;;;;;;;3.83;3.10;;;;;;;5.95;87.27;97717.34;5074878;28;20177;-69
2021/10/14 04:45:45;;;;;;;2.63;2.40;;;;;;;5.90;87.16;97715.25;5074225;28;20192;-69
2021/10/14 04:48:10;;;;;;;2.63;2.37;;;;;;;5.85;87.75;97717.53;5074950;28;20189;-69
2021/10/14 04:50:36;;;;;;;4.90;2.90;;;;;;;5.82;88.43;97702.25;5074394;28;20256;-68
2021/10/14 04:53:01;;;;;;;2.70;2.50;;;;;;;5.76;88.85;97705.56;5074914;28;20253;-68
2021/10/14 04:55:26;;;;;;;2.97;2.53;;;;;;;5.71;89.14;97708.69;5074173;28;20192;-69
2021/10/14 04:57:52;;;;;;;5.03;2.90;;;;;;;5.73;88.72;97703.31;5074357;28;20689;-70
2021/10/14 05:00:17;;;;;;;3.50;2.57;;;;;;;5.84;87.86;97701.13;5074342;28;20540;-69
2021/10/14 05:02:43;;;;;;;3.63;3.13;;;;;;;5.88;86.95;97706.00;5056167;28;20330;-69
2021/10/14 05:05:09;;;;;;;6.37;3.27;;;;;;;5.84;86.72;97701.13;5074088;28;20219;-68
2021/10/14 05:07:34;;;;;;;6.37;2.93;;;;;;;5.82;86.71;97710.06;5074049;28;20638;-70
2021/10/14 05:09:59;;;;;;;3.07;2.77;;;;;;;5.69;87.05;97710.63;5073329;28;20200;-68
2021/10/14 05:12:25;;;;;;;4.40;2.77;;;;;;;5.70;87.81;97714.88;5074402;28;20256;-68
2021/10/14 05:14:50;;;;;;;7.23;3.90;;;;;;;5.79;88.61;97710.44;5073176;28;20189;-69
2021/10/14 05:17:16;;;;;;;5.30;2.93;;;;;;;5.78;87.22;97712.22;5055542;28;20208;-69
2021/10/14 05:19:41;;;;;;;3.07;2.50;;;;;;;5.92;86.74;97713.28;5055566;28;20231;-68
2021/10/14 05:22:07;;;;;;;2.60;2.40;;;;;;;5.93;86.43;97712.28;5074085;28;20181;-68
2021/10/14 05:24:32;;;;;;;4.40;3.00;;;;;;;5.96;85.69;97713.75;5073906;28;20181;-69
2021/10/14 05:26:57;;;;;;;4.50;2.50;;;;;;;5.92;86.41;97709.84;5055616;28;20248;-69
2021/10/14 05:29:23;;;;;;;4.07;3.07;;;;;;;5.95;85.72;97709.53;5073472;28;20189;-68
2021/10/14 05:31:48;;;;;;;2.83;2.63;;;;;;;6.04;85.18;97706.69;5073491;28;20219;-69
2021/10/14 05:34:14;;;;;;;3.00;2.70;;;;;;;5.94;86.00;97713.91;5073083;28;20181;-69
2021/10/14 05:36:39;;;;;;;4.03;2.43;;;;;;;5.87;86.52;97713.00;5073450;28;20208;-68
2021/10/14 05:39:04;;;;;;;3.23;2.90;;;;;;;5.86;86.48;97699.13;5073470;28;20205;-69
2021/10/14 05:41:30;;;;;;;5.47;2.93;;;;;;;5.97;86.00;97703.16;5073543;28;20614;-69
2021/10/14 05:43:56;;;;;;;4.30;2.70;;;;;;;6.13;87.12;97702.22;5073300;28;20192;-68
2021/10/14 05:46:21;;;;;;;5.90;2.87;;;;;;;5.99;86.92;97708.19;5073221;28;20181;-68
2021/10/14 05:48:47;;;;;;;3.77;3.00;;;;;;;6.12;86.10;97704.03;5073531;28;20258;-67
2021/10/14 05:51:12;;;;;;;7.47;3.30;;;;;;;6.16;85.61;97712.28;5055241;28;20668;-68
2021/10/14 05:53:38;;;;;;;4.17;3.10;;;;;;;6.09;85.52;97701.75;5073324;28;20647;-68
2021/10/14 05:56:03;;;;;;;4.10;2.73;;;;;;;6.25;84.60;97704.22;5073135;28;20204;-68
2021/10/14 05:58:28;;;;;;;3.40;2.80;;;;;;;6.07;84.86;97697.72;5073005;28;20189;-68
2021/10/14 06:00:55;;;;;;;3.20;2.70;;;;;;;6.24;84.35;97707.00;5073181;28;20185;-68
2021/10/14 06:03:21;;;;;;;2.73;2.53;;;;;;;6.30;84.14;97703.69;5055120;28;20178;-69
2021/10/14 06:05:46;;;;;;;4.10;3.00;;;;;;;6.25;84.74;97699.00;5054860;28;20177;-69
2021/10/14 06:08:11;;;;;;;3.43;2.63;;;;;;;6.18;84.75;97699.91;5073455;28;20184;-68
2021/10/14 06:10:37;;;;;;;3.73;2.90;;;;;;;6.23;84.54;97710.59;5071254;28;20665;-69
2021/10/14 06:13:02;;;;;;;2.90;2.63;;;;;;;6.33;84.11;97707.75;5072830;28;20185;-68
2021/10/14 06:15:27;;;;;;;4.47;3.10;;;;;;;6.37;88.37;97712.41;5071966;28;20192;-72
2021/10/14 06:17:54;;;;;;;3.80;3.43;;;;;;;6.78;89.31;97705.00;5071924;28;20555;-71
2021/10/14 06:20:20;;;;;;;5.10;2.97;;;;;;;7.00;85.01;97711.91;5054928;28;20619;-71
2021/10/14 06:22:45;;;;;;;2.83;2.57;;;;;;;6.93;82.99;97712.81;5072436;28;20272;-70
2021/10/14 06:25:11;;;;;;;5.00;2.67;;;;;;;7.05;81.40;97712.19;5072331;28;20657;-69
2021/10/14 06:27:36;;;;;;;3.27;2.90;;;;;;;7.06;81.09;97713.81;5072809;28;20181;-69
2021/10/14 06:30:02;;;;;;;3.17;2.80;;;;;;;6.98;81.63;97721.69;5054794;28;20246;-69
2021/10/14 06:32:28;;;;;;;3.40;3.00;;;;;;;7.06;81.47;97705.97;5072265;28;20213;-70
2021/10/14 06:34:53;;;;;;;3.23;2.93;;;;;;;7.01;81.21;97710.94;5072349;28;20220;-70
2021/10/14 06:37:19;;;;;;;3.53;2.70;;;;;;;7.02;80.73;97709.91;5053488;28;20208;-69
2021/10/14 06:39:44;;;;;;;5.43;2.80;;;;;;;7.10;80.42;97716.84;5054671;28;20272;-68
2021/10/14 06:42:10;;;;;;;5.97;3.20;;;;;;;7.20;80.21;97716.56;5072440;28;20264;-68
2021/10/14 06:44:35;;;;;;;9.30;3.40;;;;;;;7.15;80.69;97708.47;5072364;28;20707;-68
2021/10/14 06:47:00;;;;;;;5.57;2.83;;;;;;;7.18;79.97;97706.31;5072087;28;20189;-68
2021/10/14 06:49:26;;;;;;;2.77;2.43;;;;;;;7.31;79.63;97703.03;5071538;28;20622;-68
2021/10/14 06:51:53;;;;;;;4.63;3.00;;;;;;;7.33;79.68;97711.50;5070321;28;20546;-68
2021/10/14 06:54:19;;;;;;;5.90;3.00;;;;;;;7.20;80.28;97713.94;5054136;28;20212;-69
2021/10/14 06:56:44;;;;;;;4.83;3.30;;;;;;;7.18;80.66;97714.16;5053818;28;20289;-69
2021/10/14 06:59:10;;;;;;;4.20;3.00;;;;;;;7.30;80.30;97715.28;5070142;28;20191;-68
2021/10/14 07:01:35;;;;;;;4.03;3.10;;;;;;;7.10;81.52;97714.22;5053990;28;20195;-67
2021/10/14 07:04:01;;;;;;;5.80;3.07;;;;;;;7.16;81.90;97720.53;5070981;28;20235;-71
2021/10/14 07:06:26;;;;;;;4.20;2.97;;;;;;;7.30;80.97;97719.72;5067876;28;20197;-69
2021/10/14 07:08:52;;;;;;;3.80;2.67;;;;;;;7.48;80.05;97720.91;5071945;28;20185;-69
2021/10/14 07:11:17;;;;;;;3.07;2.70;;;;;;;7.65;79.58;97718.88;5071620;28;20302;-70
2021/10/14 07:13:45;;;;;;;6.77;2.87;;;;;;;7.66;78.74;97722.31;5071503;28;20193;-68
2021/10/14 07:16:11;;;;;;;5.93;2.77;;;;;;;7.82;78.62;97728.09;5053423;28;20719;-68
2021/10/14 07:18:37;;;;;;;3.40;3.03;;;;;;;8.03;77.41;97729.88;5071588;28;20264;-68
2021/10/14 07:21:03;;;;;;;3.83;2.73;;;;;;;8.22;77.08;97734.50;5072315;28;20188;-68
2021/10/14 07:23:29;;;;;;;9.50;3.10;;;;;;;8.32;76.26;97736.81;5074413;28;20185;-69
2021/10/14 07:25:55;;;;;;;4.17;3.37;;;;;;;8.37;75.64;97739.66;5075620;28;20181;-68
2021/10/14 07:28:21;;;;;;;2.93;2.63;;;;;;;8.41;75.72;97748.75;5058281;28;20543;-68
2021/10/14 07:30:46;;;;;;;7.10;2.47;;;;;;;8.50;75.63;97744.19;5075857;28;20186;-68
2021/10/14 07:33:11;;;;;;;4.53;2.57;;;;;;;8.65;74.74;97752.72;5075644;28;20185;-71
2021/10/14 07:35:40;;;;;;;6.00;2.30;;;;;;;8.65;75.09;97750.13;5057632;28;20700;-69
2021/10/14 07:38:12;;;;;;;3.57;2.90;;;;;;;9.01;74.09;97750.78;5075800;28;20197;-71
2021/10/14 07:40:42;;;;;;;5.00;2.87;;;;;;;9.06;73.68;97750.19;5057384;28;20185;-70
2021/10/14 07:43:12;;;;;;;4.40;2.67;;;;;;;9.26;73.19;97743.25;5075654;28;20685;-69
2021/10/14 07:45:38;;;;;;;3.07;2.70;;;;;;;9.20;73.25;97751.84;5075497;28;20203;-68
2021/10/14 07:48:04;;;;;;;3.73;2.73;;;;;;;9.43;72.79;97751.56;5057818;28;20191;-69
2021/10/14 07:50:29;;;;;;;3.63;2.63;;;;;;;9.50;71.90;97761.06;5073873;28;20180;-71
2021/10/14 07:52:55;;;;;;;3.30;2.70;;;;;;;9.52;72.18;97772.16;5075286;28;20709;-70
2021/10/14 07:55:20;;;;;;;3.90;2.63;;;;;;;9.52;71.78;97759.06;5057550;28;20178;-71
2021/10/14 07:57:45;;;;;;;6.50;2.90;;;;;;;9.35;72.56;97755.16;5057889;28;20233;-71
2021/10/14 08:00:11;;;;;;;5.90;2.83;;;;;;;9.45;71.62;97754.81;5074888;28;20215;-72
2021/10/14 08:02:37;;;;;;;4.83;3.20;;;;;;;9.30;72.61;97749.72;5075081;28;20267;-71
2021/10/14 08:05:03;;;;;;;5.57;2.87;;;;;;;9.25;73.03;97751.31;5057150;28;20298;-71
2021/10/14 08:07:29;;;;;;;3.17;2.20;;;;;;;9.31;73.28;97751.31;5075771;28;20184;-71
2021/10/14 08:09:54;;;;;;;3.23;2.50;;;;;;;9.38;72.70;97748.72;5075261;28;20219;-71
2021/10/14 08:12:21;;;;;;;12.17;4.20;;;;;;;9.18;74.65;97748.66;5074856;28;20697;-71
2021/10/14 08:14:46;;;;;;;3.97;2.80;;;;;;;9.45;73.21;97749.56;5056394;28;20284;-71
2021/10/14 08:17:11;;;;;;;4.27;2.73;;;;;;;9.52;72.00;97751.22;5074369;28;20257;-71
2021/10/14 08:19:37;;;;;;;4.93;2.90;;;;;;;9.88;70.74;97756.16;5075060;28;20185;-71
2021/10/14 08:22:02;;;;;;;3.07;2.77;;;;;;;10.09;69.87;97752.56;5074792;28;20185;-71
2021/10/14 08:24:28;;;;;;;4.17;2.87;;;;;;;10.01;70.41;97755.38;5056500;28;20187;-71
2021/10/14 08:26:54;;;;;;;4.30;3.40;;;;;;;9.92;71.16;97751.31;5074887;28;20189;-71
2021/10/14 08:29:19;;;;;;;5.73;2.87;;;;;;;9.94;71.76;97760.59;5074962;28;20180;-71
2021/10/14 08:31:44;;;;;;;2.97;2.67;;;;;;;10.13;72.60;97753.78;5074815;28;20201;-70
2021/10/14 08:34:10;;;;;;;5.13;2.77;;;;;;;10.47;70.75;97749.41;5073580;28;20196;-71
2021/10/14 08:36:35;;;;;;;5.50;3.07;;;;;;;10.51;70.71;97742.75;5056278;28;20205;-71
2021/10/14 08:39:01;;;;;;;5.10;2.70;;;;;;;10.63;69.48;97744.56;5074285;28;20188;-71
2021/10/14 08:41:27;;;;;;;7.33;2.80;;;;;;;10.45;70.62;97741.75;5075144;28;20192;-71
2021/10/14 08:43:53;;;;;;;4.80;2.70;;;;;;;10.50;71.13;97736.69;5074688;28;20530;-71
2021/10/14 08:46:19;;;;;;;7.23;2.80;;;;;;;10.66;70.35;97738.09;5074386;28;20276;-71
2021/10/14 08:48:44;;;;;;;2.80;2.60;;;;;;;10.74;69.60;97733.47;5073710;28;20673;-72
2021/10/14 08:51:10;;;;;;;2.33;2.13;;;;;;;10.52;69.29;97732.06;5056639;28;20180;-71
2021/10/14 08:53:37;;;;;;;3.77;2.37;;;;;;;10.40;69.37;97736.28;5074562;28;20201;-71
2021/10/14 08:56:03;;;;;;;3.33;2.70;;;;;;;10.47;69.28;97737.09;5074578;28;20212;-71
2021/10/14 08:58:28;;;;;;;2.93;2.63;;;;;;;10.53;69.10;97738.13;5074275;28;20560;-71
2021/10/14 09:01:23;;;;;;;2.97;2.30;;;;;;;10.39;67.73;97732.06;5072954;28;20185;-71
2021/10/14 09:03:49;;;;;;;3.93;2.33;;;;;;;10.52;67.81;97739.94;5065187;28;20204;-71
2021/10/14 09:06:17;;;;;;;2.60;2.20;;;;;;;10.84;67.18;97740.91;5073415;28;20276;-71
2021/10/14 09:08:46;;;;;;;3.67;3.00;;;;;;;11.12;66.78;97749.31;5074152;28;20246;-71
2021/10/14 09:11:12;;;;;;;3.77;2.73;;;;;;;11.44;64.94;97746.78;5074058;28;20217;-72
2021/10/14 09:13:47;;;;;;;2.53;2.33;;;;;;;11.61;65.02;97740.03;5073778;28;20181;-72
2021/10/14 09:16:37;;;;;;;4.23;2.23;;;;;;;11.73;64.32;97737.56;5068678;28;20223;-72
2021/10/14 09:19:14;;;;;;;5.23;2.00;;;;;;;12.03;63.39;97736.81;5070261;28;20706;-71
2021/10/14 09:21:43;;;;;;;3.23;2.00;;;;;;;12.01;64.07;97735.41;5072527;28;20189;-71
2021/10/14 09:24:33;;;;;;;3.73;2.23;;;;;;;12.26;62.37;97728.34;5073320;28;20186;-71
2021/10/14 09:27:01;;;;;;;3.57;2.30;;;;;;;12.46;61.82;97734.28;5072877;28;20540;-71
2021/10/14 09:29:28;;;;;;;4.03;2.50;;;;;;;12.66;61.53;97726.19;5054685;28;20189;-71
2021/10/14 09:31:57;;;;;;;2.07;1.97;;;;;;;12.78;60.83;97721.84;5072941;28;20182;-71
2021/10/14 09:34:31;;;;;;;3.60;2.10;;;;;;;13.05;60.71;97722.38;5055738;28;20243;-71
2021/10/14 09:36:58;;;;;;;3.43;2.10;;;;;;;12.91;58.83;97713.03;5073678;28;20196;-71
2021/10/14 09:39:25;;;;;;;1.80;1.70;;;;;;;13.27;58.11;97714.88;5073330;28;20185;-71
2021/10/14 09:41:52;;;;;;;1.97;1.83;;;;;;;13.39;58.03;97715.75;5035996;28;20182;-71
2021/10/14 09:44:18;;;;;;;2.93;1.93;;;;;;;13.37;58.18;97715.19;5067338;28;20715;-71
2021/10/14 09:46:55;;;;;;;3.03;2.27;;;;;;;13.28;58.70;97709.38;5072957;28;20185;-71
2021/10/14 09:49:26;;;;;;;2.17;1.97;;;;;;;13.13;59.08;97714.22;5071506;28;20195;-71
2021/10/14 09:51:52;;;;;;;4.40;2.23;;;;;;;13.05;59.45;97711.03;5071136;28;20623;-72
2021/10/14 09:54:19;;;;;;;3.13;2.23;;;;;;;12.93;59.61;97708.31;5054088;28;20183;-72
2021/10/14 09:56:45;;;;;;;2.67;2.20;;;;;;;13.00;59.17;97710.91;5073195;28;20216;-71
2021/10/14 09:59:10;;;;;;;2.50;1.50;;;;;;;12.88;59.66;97708.19;5073311;28;20653;-70
2021/10/14 10:01:40;;;;;;;3.83;2.33;;;;;;;12.87;60.26;97709.22;5072603;28;20251;-69
2021/10/14 10:04:07;;;;;;;3.03;2.20;;;;;;;12.78;60.09;97700.00;5072420;28;20258;-70
2021/10/14 10:06:34;;;;;;;2.60;2.27;;;;;;;12.87;60.05;97706.59;5072567;28;20653;-70
2021/10/14 10:09:14;;;;;;;2.17;1.83;;;;;;;12.95;60.11;97705.47;5073055;28;20185;-70
2021/10/14 10:11:46;;;;;;;3.03;2.00;;;;;;;12.94;59.94;97704.69;5072788;28;20228;-69
2021/10/14 10:14:13;;;;;;;3.43;2.40;;;;;;;12.83;60.59;97710.66;5071610;28;20586;-70
2021/10/14 10:16:56;;;;;;;4.57;2.63;;;;;;;12.94;60.00;97699.41;5054740;28;20292;-70
2021/10/14 10:19:52;;;;;;;2.77;2.37;;;;;;;13.12;59.20;97696.00;5071936;28;20668;-70
2021/10/14 10:22:33;;;;;;;3.23;2.43;;;;;;;13.15;59.59;97699.00;5058429;28;20196;-71
2021/10/14 10:25:14;;;;;;;2.50;2.23;;;;;;;13.37;58.58;97696.75;5072818;28;20817;-71
2021/10/14 10:27:40;;;;;;;3.57;2.60;;;;;;;13.20;58.17;97695.72;5072935;28;20630;-71
2021/10/14 10:30:05;;;;;;;3.77;2.40;;;;;;;13.06;58.80;97702.94;5071350;28;20208;-71
2021/10/14 10:32:42;;;;;;;3.93;2.63;;;;;;;12.92;59.52;97696.22;5071969;28;20189;-71
2021/10/14 10:35:09;;;;;;;4.10;2.03;;;;;;;12.94;59.22;97704.69;5068803;28;20173;-71
2021/10/14 10:37:40;;;;;;;4.33;2.07;;;;;;;13.22;58.00;97691.84;5071582;28;20313;-71
2021/10/14 10:40:23;;;;;;;2.83;2.40;;;;;;;13.44;57.63;97692.19;5071492;28;20185;-71
2021/10/14 10:42:54;;;;;;;3.13;2.27;;;;;;;13.50;57.78;97687.84;5071752;28;20193;-71
2021/10/14 10:45:43;;;;;;;3.17;2.23;;;;;;;13.02;58.37;97690.44;5072124;28;20170;-71
2021/10/14 10:48:09;;;;;;;3.60;1.90;;;;;;;13.05;58.50;97682.91;5072106;28;20177;-71
2021/10/14 10:50:45;;;;;;;2.50;2.00;;;;;;;13.27;58.15;97681.44;5072118;28;20185;-71
2021/10/14 10:53:12;;;;;;;2.17;1.93;;;;;;;13.46;57.16;97674.34;5063508;28;20192;-71
2021/10/14 10:55:41;;;;;;;2.17;1.97;;;;;;;13.59;57.36;97662.81;5072875;28;20213;-71
2021/10/14 10:58:09;;;;;;;4.07;2.10;;;;;;;13.68;57.14;97669.38;5071621;28;20213;-71
2021/10/14 11:00:43;;;;;;;3.23;2.20;;;;;;;13.67;55.94;97663.28;5071844;28;20177;-71
2021/10/14 11:03:18;;;;;;;2.20;1.90;;;;;;;14.07;55.22;97666.16;5054394;28;20187;-71
2021/10/14 11:05:48;;;;;;;3.73;2.33;;;;;;;14.20;53.86;97659.88;5072086;28;20543;-71
2021/10/14 11:08:18;;;;;;;3.70;2.13;;;;;;;14.38;53.85;97664.25;5072026;28;20189;-72
2021/10/14 11:10:46;;;;;;;2.13;1.90;;;;;;;14.37;53.70;97658.19;5069579;28;20248;-71
2021/10/14 11:13:12;;;;;;;1.60;1.50;;;;;;;14.73;53.04;97658.97;5071920;28;20232;-71
2021/10/14 11:15:38;;;;;;;2.67;1.50;;;;;;;14.78;52.38;97659.09;5070494;28;20518;-71
2021/10/14 11:18:05;;;;;;;1.83;1.47;;;;;;;14.37;52.95;97652.13;5071038;28;20223;-71
2021/10/14 11:20:32;;;;;;;1.43;1.23;;;;;;;14.14;52.96;97647.59;5068459;28;20300;-71
2021/10/14 11:23:02;;;;;;;1.57;1.17;;;;;;;14.08;52.77;97648.50;5070509;28;20188;-71
2021/10/14 11:25:27;;;;;;;2.57;1.27;;;;;;;13.74;54.37;97647.41;5070672;28;20269;-71
2021/10/14 11:28:04;;;;;;;2.73;1.30;;;;;;;13.57;53.84;97647.22;5032812;28;20285;-71
2021/10/14 11:30:42;;;;;;;2.80;1.30;;;;;;;13.98;53.78;97645.63;5070188;28;20189;-71
2021/10/14 11:33:26;;;;;;;1.60;1.50;;;;;;;13.48;53.65;97645.94;5052771;28;20645;-71
2021/10/14 11:36:04;;;;;;;2.63;1.43;;;;;;;13.59;53.60;97641.75;5061606;28;20181;-71
2021/10/14 11:38:32;;;;;;;1.90;1.20;;;;;;;14.08;53.09;97637.97;5052971;28;20187;-71